Time;durP1;ratioP1;P1;durP2;ratioP2;P2;SDS_P1;SDS_P2;PMS_P1;PMS_P2;Temp;Humidity;BMP_temperature;BMP_pressure;BME280_temperature;BME280_humidity;BME280_pressure;Samples;Min_cycle;Max_cycle;Signal;HPM_P1;HPM_P2
2022/08/28 00:00:35;;;;;;;7.27;2.90;;;16.70;99.90;;;;;;4973987;28;20206;-53
2022/08/28 00:03:02;;;;;;;5.47;3.00;;;16.60;99.90;;;;;;4985109;28;20299;-52
2022/08/28 00:05:32;;;;;;;10.27;3.53;;;16.70;99.90;;;;;;4970388;28;20212;-52
2022/08/28 00:07:59;;;;;;;7.70;2.87;;;16.60;99.90;;;;;;4971500;28;20480;-51
2022/08/28 00:10:27;;;;;;;6.83;2.77;;;16.70;99.90;;;;;;4969878;28;20237;-48
2022/08/28 00:12:55;;;;;;;5.80;3.13;;;16.70;99.90;;;;;;4971958;28;20216;-52
2022/08/28 00:15:29;;;;;;;9.90;3.10;;;16.70;99.90;;;;;;4977374;28;20224;-52
2022/08/28 00:17:57;;;;;;;6.13;2.90;;;16.60;99.90;;;;;;4987797;28;20213;-50
2022/08/28 00:20:24;;;;;;;9.63;3.30;;;16.60;99.90;;;;;;4980031;28;20305;-51
2022/08/28 00:22:54;;;;;;;4.53;2.70;;;16.50;99.90;;;;;;4985305;28;20637;-52
2022/08/28 00:25:24;;;;;;;8.70;3.27;;;16.50;99.90;;;;;;4988543;28;20344;-51
2022/08/28 00:27:53;;;;;;;6.73;3.10;;;16.50;99.90;;;;;;4984459;28;20298;-52
2022/08/28 00:30:25;;;;;;;7.73;2.90;;;16.50;99.90;;;;;;5012489;28;20236;-51
2022/08/28 00:32:54;;;;;;;6.27;3.00;;;16.50;99.90;;;;;;4977202;28;20209;-50
2022/08/28 00:35:22;;;;;;;8.27;3.10;;;16.50;99.90;;;;;;4972179;28;20220;-53
2022/08/28 00:37:49;;;;;;;6.63;2.80;;;16.40;99.90;;;;;;4968115;28;20213;-50
2022/08/28 00:40:19;;;;;;;6.10;2.87;;;16.40;99.90;;;;;;4965260;28;20220;-50
2022/08/28 00:43:01;;;;;;;7.37;3.03;;;16.40;99.90;;;;;;4977566;28;20224;-49
2022/08/28 00:45:29;;;;;;;6.70;3.00;;;16.40;99.90;;;;;;4982137;28;20451;-50
2022/08/28 00:48:00;;;;;;;10.33;3.20;;;16.40;99.90;;;;;;4977669;28;20249;-51
2022/08/28 00:52:04;;;;;;;9.47;3.03;;;16.30;99.90;;;;;;4971449;28;20239;-52
2022/08/28 00:53:26;;;;;;;8.00;3.00;;;16.30;99.90;;;;;;4973797;28;20623;-54
2022/08/28 00:56:00;;;;;;;6.40;3.23;;;16.20;99.90;;;;;;4978833;28;20701;-52
2022/08/28 00:58:30;;;;;;;6.13;2.80;;;16.30;99.90;;;;;;4969467;28;20203;-50
2022/08/28 01:00:59;;;;;;;6.10;3.03;;;16.30;99.90;;;;;;4975015;28;20297;-51
2022/08/28 01:03:27;;;;;;;7.23;2.80;;;16.30;99.90;;;;;;4968096;28;20209;-52
2022/08/28 01:05:54;;;;;;;5.20;2.47;;;16.30;99.90;;;;;;4977351;28;20848;-50
2022/08/28 01:08:21;;;;;;;7.87;2.87;;;16.30;99.90;;;;;;4991585;28;20296;-52
2022/08/28 01:10:53;;;;;;;5.73;2.60;;;16.10;99.90;;;;;;5000836;28;20299;-51
2022/08/28 01:13:22;;;;;;;6.93;2.53;;;16.10;99.90;;;;;;4988331;28;20716;-50
2022/08/28 01:15:50;;;;;;;8.93;3.47;;;16.10;99.90;;;;;;4986074;28;20301;-51
2022/08/28 01:18:18;;;;;;;6.27;2.73;;;16.20;99.90;;;;;;4981961;28;20209;-51
2022/08/28 01:21:00;;;;;;;4.70;2.37;;;16.20;99.90;;;;;;4983740;28;20773;-50
2022/08/28 01:23:53;;;;;;;7.47;3.27;;;16.00;99.90;;;;;;4984639;28;20220;-53
2022/08/28 01:26:21;;;;;;;5.17;2.60;;;16.00;99.90;;;;;;4987468;28;20646;-53
2022/08/28 01:28:48;;;;;;;5.67;2.40;;;16.10;99.90;;;;;;4986436;28;20194;-52
2022/08/28 01:31:15;;;;;;;6.00;2.50;;;16.10;99.90;;;;;;4989383;28;20201;-50
2022/08/28 01:33:45;;;;;;;7.37;2.90;;;16.00;99.90;;;;;;4984514;28;20656;-52
2022/08/28 01:36:13;;;;;;;5.73;2.50;;;16.00;99.90;;;;;;4987017;28;20295;-51
2022/08/28 01:38:41;;;;;;;4.70;2.10;;;16.00;99.90;;;;;;4984537;28;20743;-50
2022/08/28 01:41:10;;;;;;;6.80;2.30;;;16.00;99.90;;;;;;4987014;28;20618;-53
2022/08/28 01:43:39;;;;;;;6.27;3.10;;;15.90;99.90;;;;;;4986824;28;20217;-51
2022/08/28 01:46:08;;;;;;;8.30;2.90;;;15.90;99.90;;;;;;4986470;28;20353;-52
2022/08/28 01:48:39;;;;;;;6.80;2.43;;;15.90;99.90;;;;;;4973287;28;20299;-52
2022/08/28 01:51:07;;;;;;;7.77;3.00;;;15.90;99.90;;;;;;4965379;28;20212;-53
2022/08/28 01:53:34;;;;;;;5.33;2.53;;;16.00;99.90;;;;;;4983786;28;20209;-50
2022/08/28 01:56:07;;;;;;;10.23;2.80;;;16.00;99.90;;;;;;4982399;28;20208;-51
2022/08/28 01:58:34;;;;;;;5.50;2.70;;;15.90;99.90;;;;;;4973020;28;20295;-52
2022/08/28 02:01:09;;;;;;;7.30;2.57;;;16.00;99.90;;;;;;4983357;28;20217;-52
2022/08/28 02:03:36;;;;;;;4.83;2.50;;;16.00;99.90;;;;;;4988984;28;20262;-52
2022/08/28 02:06:05;;;;;;;5.67;2.80;;;16.10;99.90;;;;;;4983651;28;20759;-53
2022/08/28 02:08:31;;;;;;;7.53;2.50;;;16.10;99.90;;;;;;4987297;28;20209;-52
2022/08/28 02:10:58;;;;;;;5.47;2.80;;;16.00;99.90;;;;;;4980489;28;20324;-52
2022/08/28 02:13:25;;;;;;;6.00;2.47;;;16.10;99.90;;;;;;4983325;28;20212;-52
2022/08/28 02:15:52;;;;;;;6.53;2.27;;;16.20;99.90;;;;;;4983683;28;20238;-52
2022/08/28 02:18:19;;;;;;;4.97;2.77;;;16.10;99.90;;;;;;4990051;28;20227;-52
2022/08/28 02:20:46;;;;;;;5.73;2.40;;;16.10;99.90;;;;;;4983041;28;20268;-51
2022/08/28 02:23:13;;;;;;;6.63;2.73;;;16.20;99.90;;;;;;4987183;28;20327;-52
2022/08/28 02:25:40;;;;;;;7.93;2.83;;;16.20;99.90;;;;;;4982704;28;20566;-52
2022/08/28 02:28:07;;;;;;;10.63;2.33;;;16.20;99.90;;;;;;4985435;28;20239;-51
2022/08/28 02:30:37;;;;;;;11.67;3.00;;;16.10;99.90;;;;;;4981625;28;21201;-51
2022/08/28 02:33:04;;;;;;;5.83;2.97;;;16.20;99.90;;;;;;4981681;28;20207;-51
2022/08/28 02:35:31;;;;;;;4.33;2.50;;;16.10;99.90;;;;;;4984926;28;20294;-51
2022/08/28 02:37:58;;;;;;;6.20;2.83;;;16.10;99.90;;;;;;4991817;28;20242;-51
2022/08/28 02:40:33;;;;;;;4.73;2.53;;;16.10;99.90;;;;;;4982019;28;20724;-53
2022/08/28 02:43:00;;;;;;;6.40;2.70;;;15.90;99.90;;;;;;4995888;28;20219;-52
2022/08/28 02:45:27;;;;;;;7.20;2.90;;;15.90;99.90;;;;;;4985990;28;20205;-50
2022/08/28 02:47:55;;;;;;;5.43;2.50;;;16.00;99.90;;;;;;4979419;28;20291;-52
2022/08/28 02:50:23;;;;;;;6.27;2.70;;;16.00;99.90;;;;;;4989069;28;20298;-52
2022/08/28 02:52:50;;;;;;;7.63;3.20;;;15.90;99.90;;;;;;4984655;28;20210;-51
2022/08/28 02:55:18;;;;;;;7.70;2.70;;;15.90;99.90;;;;;;4981013;28;20895;-51
2022/08/28 02:57:46;;;;;;;4.83;2.90;;;16.00;99.90;;;;;;4984453;28;20213;-52
2022/08/28 03:00:21;;;;;;;7.97;3.50;;;16.10;99.90;;;;;;4982571;28;20227;-51
2022/08/28 03:02:48;;;;;;;7.73;3.07;;;16.00;99.90;;;;;;4988051;28;20214;-51
2022/08/28 03:05:17;;;;;;;5.50;2.50;;;15.90;99.90;;;;;;4982771;28;20198;-52
2022/08/28 03:07:44;;;;;;;6.07;3.10;;;15.90;99.90;;;;;;4979383;28;20345;-52
2022/08/28 03:10:11;;;;;;;7.70;2.77;;;15.90;99.90;;;;;;4994833;28;20296;-53
2022/08/28 03:12:38;;;;;;;6.10;2.90;;;15.80;99.90;;;;;;4981031;28;20244;-51
2022/08/28 03:15:06;;;;;;;8.07;2.97;;;15.80;99.90;;;;;;4982523;28;20240;-52
2022/08/28 03:17:35;;;;;;;6.93;2.87;;;15.70;99.90;;;;;;4978168;28;20295;-51
2022/08/28 03:20:07;;;;;;;9.87;3.00;;;15.80;99.90;;;;;;4985339;28;20217;-51
2022/08/28 03:25:21;;;;;;;6.37;2.73;;;15.50;99.90;;;;;;4979378;28;20201;-51
2022/08/28 03:27:49;;;;;;;9.63;2.80;;;15.50;99.90;;;;;;4983308;28;20258;-51
2022/08/28 03:30:17;;;;;;;5.50;2.63;;;15.50;99.90;;;;;;4978097;28;20198;-50
2022/08/28 03:32:44;;;;;;;6.67;2.63;;;15.50;99.90;;;;;;4978924;28;20298;-51
2022/08/28 03:35:11;;;;;;;5.30;2.50;;;15.40;99.90;;;;;;4993805;28;20209;-51
2022/08/28 03:37:39;;;;;;;4.60;2.50;;;15.40;99.90;;;;;;4987129;28;20214;-51
2022/08/28 03:40:07;;;;;;;7.10;2.83;;;15.50;99.90;;;;;;4979707;28;20677;-51
2022/08/28 03:42:34;;;;;;;7.37;3.20;;;15.50;99.90;;;;;;4981465;28;20769;-51
2022/08/28 03:45:04;;;;;;;7.57;2.97;;;15.50;99.90;;;;;;4973141;28;20702;-50
2022/08/28 03:47:30;;;;;;;5.20;2.80;;;15.60;99.90;;;;;;4985308;28;20789;-51
2022/08/28 03:49:57;;;;;;;6.77;3.20;;;15.60;99.90;;;;;;4989246;28;20237;-52
2022/08/28 03:52:24;;;;;;;7.03;2.83;;;15.60;99.90;;;;;;4984524;28;20801;-50
2022/08/28 03:54:51;;;;;;;5.60;2.53;;;15.50;99.90;;;;;;4981463;28;20335;-51
2022/08/28 03:57:20;;;;;;;9.03;2.77;;;15.60;99.90;;;;;;4978237;28;20243;-52
2022/08/28 03:59:49;;;;;;;7.50;3.17;;;15.70;99.90;;;;;;4979137;28;20265;-50
2022/08/28 04:02:18;;;;;;;7.53;3.13;;;15.50;99.90;;;;;;4976716;28;20350;-50
2022/08/28 04:04:49;;;;;;;6.97;2.63;;;15.50;99.90;;;;;;4981600;28;20249;-50
2022/08/28 04:07:17;;;;;;;5.87;2.53;;;15.50;99.90;;;;;;4982220;28;20382;-51
2022/08/28 04:09:45;;;;;;;11.00;3.00;;;15.40;99.90;;;;;;4976620;28;20209;-53
2022/08/28 04:12:13;;;;;;;6.70;3.20;;;15.40;99.90;;;;;;4982728;28;20862;-53
2022/08/28 04:14:40;;;;;;;8.10;2.73;;;15.40;99.90;;;;;;4980602;28;20710;-49
2022/08/28 04:17:07;;;;;;;9.30;2.77;;;15.40;99.90;;;;;;4980400;28;20225;-52
2022/08/28 04:19:34;;;;;;;4.67;2.47;;;15.50;99.90;;;;;;4972763;28;20276;-50
2022/08/28 04:22:01;;;;;;;8.07;2.73;;;15.50;99.90;;;;;;4977909;28;20824;-51
2022/08/28 04:24:28;;;;;;;7.57;2.73;;;15.60;99.90;;;;;;4978230;28;20796;-51
2022/08/28 04:26:55;;;;;;;3.77;2.67;;;15.60;99.90;;;;;;4977887;28;20205;-52
2022/08/28 04:29:22;;;;;;;4.53;2.80;;;15.60;99.90;;;;;;4980800;28;20347;-52
2022/08/28 04:31:49;;;;;;;6.37;2.57;;;15.70;99.90;;;;;;4981475;28;20212;-51
2022/08/28 04:34:16;;;;;;;6.83;2.57;;;15.60;99.90;;;;;;4980961;28;20209;-52
2022/08/28 04:36:44;;;;;;;6.60;2.87;;;15.60;99.90;;;;;;4981905;28;20218;-53
2022/08/28 04:39:11;;;;;;;4.80;2.60;;;15.60;99.90;;;;;;4982417;28;20205;-51
2022/08/28 04:41:38;;;;;;;5.10;2.60;;;15.70;99.90;;;;;;4979766;28;20212;-51
2022/08/28 04:44:06;;;;;;;8.50;2.80;;;15.70;99.90;;;;;;4980611;28;20697;-52
2022/08/28 04:46:33;;;;;;;5.07;2.83;;;15.70;99.90;;;;;;4983214;28;20288;-52
2022/08/28 04:49:03;;;;;;;5.50;2.13;;;15.70;99.90;;;;;;4985036;28;20240;-52
2022/08/28 04:51:31;;;;;;;7.93;2.73;;;15.70;99.90;;;;;;4986240;28;20241;-52
2022/08/28 04:53:58;;;;;;;5.90;2.90;;;15.70;99.90;;;;;;4986374;28;20284;-51
2022/08/28 04:56:25;;;;;;;7.33;2.30;;;15.60;99.90;;;;;;4985220;28;20858;-53
2022/08/28 04:58:52;;;;;;;4.33;3.00;;;15.70;99.90;;;;;;4986340;28;20237;-52
2022/08/28 05:01:23;;;;;;;9.53;2.87;;;15.70;99.90;;;;;;4984679;28;20209;-53
2022/08/28 05:03:56;;;;;;;7.23;2.57;;;15.80;99.90;;;;;;4985358;28;20229;-51
2022/08/28 05:06:25;;;;;;;5.07;2.50;;;15.70;99.90;;;;;;4984332;28;20235;-49
2022/08/28 05:08:55;;;;;;;5.23;2.93;;;15.80;99.90;;;;;;4982669;28;20308;-52
2022/08/28 05:11:24;;;;;;;4.90;2.37;;;15.70;99.90;;;;;;4985253;28;20330;-51
2022/08/28 05:14:08;;;;;;;4.13;2.43;;;15.80;99.90;;;;;;4982706;28;20623;-50
2022/08/28 05:16:48;;;;;;;5.83;2.53;;;15.70;99.90;;;;;;4980123;28;20239;-51
2022/08/28 05:19:17;;;;;;;6.87;2.30;;;15.80;99.90;;;;;;4982686;28;20224;-50
2022/08/28 05:21:44;;;;;;;6.97;2.67;;;15.60;99.90;;;;;;4982794;28;20212;-50
2022/08/28 05:24:12;;;;;;;7.97;2.63;;;15.60;99.90;;;;;;4984204;28;20341;-51
2022/08/28 05:26:40;;;;;;;5.47;2.37;;;15.70;99.90;;;;;;4987709;28;20610;-52
2022/08/28 05:29:08;;;;;;;6.57;2.53;;;15.70;99.90;;;;;;4985215;28;20247;-51
2022/08/28 05:31:37;;;;;;;5.37;2.43;;;15.70;99.90;;;;;;4985530;28;21248;-51
2022/08/28 05:34:05;;;;;;;5.20;2.47;;;15.70;99.90;;;;;;4987828;28;20205;-50
2022/08/28 05:36:34;;;;;;;4.30;2.20;;;15.60;99.90;;;;;;4987072;28;20295;-50
2022/08/28 05:39:05;;;;;;;6.63;2.53;;;15.50;99.90;;;;;;4987344;28;20269;-52
2022/08/28 05:41:33;;;;;;;5.47;2.63;;;15.50;99.90;;;;;;4984145;28;20190;-50
2022/08/28 05:44:02;;;;;;;8.13;2.50;;;15.60;99.90;;;;;;4984939;28;20675;-50
2022/08/28 05:46:29;;;;;;;8.50;2.93;;;15.60;99.90;;;;;;4983456;28;20271;-51
2022/08/28 05:48:58;;;;;;;7.83;2.80;;;15.60;99.90;;;;;;4981266;28;20324;-52
2022/08/28 05:51:26;;;;;;;8.87;2.40;;;15.70;99.90;;;;;;4976462;28;20287;-53
2022/08/28 05:53:54;;;;;;;5.17;2.17;;;15.70;99.90;;;;;;4983514;28;20209;-50
2022/08/28 05:56:28;;;;;;;10.33;2.23;;;15.60;99.90;;;;;;4978423;28;20290;-53
2022/08/28 05:59:00;;;;;;;4.43;2.13;;;15.60;99.90;;;;;;4980290;28;20251;-53
2022/08/28 06:01:29;;;;;;;7.30;2.60;;;15.70;99.90;;;;;;4977920;28;20750;-51
2022/08/28 06:04:07;;;;;;;7.03;2.33;;;15.70;99.90;;;;;;4983239;28;20348;-52
2022/08/28 06:06:37;;;;;;;5.83;2.10;;;15.80;99.90;;;;;;4981069;28;20290;-51
2022/08/28 06:09:13;;;;;;;9.70;2.27;;;16.00;99.90;;;;;;4980706;28;20193;-50
2022/08/28 06:11:43;;;;;;;6.38;2.58;;;15.90;99.90;;;;;;4730598;28;10001150;-52
2022/08/28 06:14:15;;;;;;;8.17;2.40;;;16.00;99.90;;;;;;4968437;28;20909;-50
2022/08/28 06:16:46;;;;;;;5.90;2.10;;;16.10;99.90;;;;;;4980874;28;20207;-49
2022/08/28 06:19:15;;;;;;;5.57;2.03;;;16.30;99.90;;;;;;4976578;28;20858;-51
2022/08/28 06:21:43;;;;;;;7.37;2.23;;;16.30;99.90;;;;;;4983200;28;20209;-51
2022/08/28 06:24:10;;;;;;;5.57;1.77;;;16.30;99.90;;;;;;4988488;28;20354;-52
2022/08/28 06:26:37;;;;;;;5.30;1.93;;;16.40;99.90;;;;;;4979317;28;20206;-50
2022/08/28 06:29:07;;;;;;;9.70;3.00;;;16.30;99.90;;;;;;4975403;28;20732;-52
2022/08/28 06:31:34;;;;;;;7.10;2.10;;;16.40;99.90;;;;;;4977837;28;20335;-52
2022/08/28 06:34:01;;;;;;;5.10;2.20;;;16.60;99.90;;;;;;4978765;28;20215;-52
2022/08/28 06:36:30;;;;;;;6.73;1.97;;;16.60;99.90;;;;;;4984101;28;20261;-51
2022/08/28 06:38:59;;;;;;;4.17;1.87;;;16.60;99.90;;;;;;4989249;28;20582;-49
2022/08/28 06:41:27;;;;;;;7.20;1.73;;;16.60;99.90;;;;;;4985844;28;20221;-50
2022/08/28 06:43:54;;;;;;;6.97;2.27;;;16.70;99.90;;;;;;4985450;28;20732;-51
2022/08/28 06:46:22;;;;;;;7.27;2.07;;;16.70;99.90;;;;;;4974071;28;20826;-51
2022/08/28 06:48:49;;;;;;;5.27;2.20;;;16.80;99.90;;;;;;4981392;28;20329;-50
2022/08/28 06:51:16;;;;;;;9.17;2.37;;;17.00;99.90;;;;;;4994058;28;20210;-52
2022/08/28 06:53:45;;;;;;;9.37;2.60;;;17.00;99.90;;;;;;4985371;28;20279;-51
2022/08/28 06:56:14;;;;;;;7.97;2.33;;;17.30;99.90;;;;;;4980602;28;20933;-52
2022/08/28 06:58:56;;;;;;;9.30;2.27;;;17.40;99.90;;;;;;4982671;28;20206;-52
2022/08/28 07:01:30;;;;;;;10.83;1.97;;;17.40;99.90;;;;;;4977264;28;20292;-50
2022/08/28 07:04:04;;;;;;;8.03;1.80;;;17.60;99.90;;;;;;4988618;28;21914;-52
2022/08/28 07:06:35;;;;;;;5.33;1.57;;;17.70;99.90;;;;;;4981759;28;20717;-50
2022/08/28 07:09:04;;;;;;;11.63;2.13;;;17.60;99.90;;;;;;4981283;28;21001;-51
2022/08/28 07:11:32;;;;;;;7.60;1.87;;;17.60;99.90;;;;;;4988497;28;20297;-50
2022/08/28 07:14:00;;;;;;;5.33;1.93;;;17.50;99.90;;;;;;4988106;28;20210;-51
2022/08/28 07:16:30;;;;;;;4.40;1.80;;;17.70;99.90;;;;;;4988157;28;20298;-52
2022/08/28 07:18:58;;;;;;;6.70;2.50;;;18.00;99.90;;;;;;4990820;28;20202;-52
2022/08/28 07:21:25;;;;;;;7.00;1.63;;;18.20;99.90;;;;;;4981744;28;20212;-51
2022/08/28 07:23:53;;;;;;;4.83;1.83;;;18.30;99.90;;;;;;4987441;28;20310;-50
2022/08/28 07:26:23;;;;;;;7.10;1.50;;;18.00;99.90;;;;;;4988041;28;20294;-51
2022/08/28 07:28:53;;;;;;;6.00;1.73;;;17.90;99.90;;;;;;4987912;28;20202;-52
2022/08/28 07:31:36;;;;;;;6.50;1.97;;;17.90;99.90;;;;;;4989141;28;20638;-52
2022/08/28 07:34:03;;;;;;;7.03;1.70;;;18.20;99.90;;;;;;4975343;28;20202;-51
2022/08/28 07:36:31;;;;;;;5.43;1.53;;;18.20;99.90;;;;;;4985097;28;20574;-52
2022/08/28 07:38:58;;;;;;;5.53;1.67;;;18.10;99.90;;;;;;4984960;28;20265;-51
2022/08/28 07:41:28;;;;;;;4.93;1.87;;;18.10;99.90;;;;;;4990928;28;20239;-52
2022/08/28 07:46:42;;;;;;;3.03;1.47;;;18.40;99.90;;;;;;4984217;28;20304;-52
2022/08/28 07:49:10;;;;;;;4.73;1.33;;;18.70;99.90;;;;;;4986712;28;20337;-51
2022/08/28 07:51:37;;;;;;;6.90;1.57;;;18.50;99.90;;;;;;4986661;28;21024;-52
2022/08/28 07:54:04;;;;;;;6.67;1.70;;;18.50;99.90;;;;;;4984612;28;20243;-51
2022/08/28 07:56:32;;;;;;;4.00;1.40;;;18.30;99.90;;;;;;4988042;28;20210;-52
2022/08/28 07:59:02;;;;;;;3.17;1.90;;;18.30;99.90;;;;;;4985192;28;20287;-53
2022/08/28 08:01:30;;;;;;;4.67;1.67;;;18.40;99.90;;;;;;4983679;28;20203;-51
2022/08/28 08:03:57;;;;;;;7.03;1.43;;;18.50;99.90;;;;;;4982884;28;20223;-52
2022/08/28 08:06:30;;;;;;;4.77;1.63;;;18.50;99.90;;;;;;4986990;28;21878;-52
2022/08/28 08:09:00;;;;;;;4.33;1.67;;;18.60;99.90;;;;;;4982511;28;20258;-50
2022/08/28 08:11:27;;;;;;;5.43;1.00;;;18.90;99.90;;;;;;4989650;28;20291;-50
2022/08/28 08:14:02;;;;;;;7.23;1.20;;;18.70;99.90;;;;;;4985740;28;20687;-51
2022/08/28 08:16:34;;;;;;;4.53;1.47;;;18.50;99.90;;;;;;4980616;28;20203;-52
2022/08/28 08:19:01;;;;;;;4.93;1.40;;;18.70;99.90;;;;;;4985113;28;20217;-51
2022/08/28 08:21:28;;;;;;;4.90;1.47;;;18.80;99.90;;;;;;4985748;28;20602;-52
2022/08/28 08:23:57;;;;;;;4.20;1.33;;;18.80;99.90;;;;;;4987823;28;20516;-53
2022/08/28 08:26:26;;;;;;;3.53;1.10;;;18.70;99.90;;;;;;4991400;28;20202;-52
2022/08/28 08:28:55;;;;;;;2.83;1.20;;;18.90;99.90;;;;;;4990071;28;20202;-53
2022/08/28 08:31:28;;;;;;;2.60;1.63;;;19.20;99.90;;;;;;4985513;28;20754;-52
2022/08/28 08:34:00;;;;;;;6.97;1.40;;;19.30;99.90;;;;;;4991777;28;20196;-52
2022/08/28 08:36:29;;;;;;;2.70;1.30;;;19.20;99.90;;;;;;4982728;28;20295;-53
2022/08/28 08:38:57;;;;;;;5.80;2.73;;;19.20;99.90;;;;;;4990415;28;20678;-51
2022/08/28 08:41:48;;;;;;;12.13;6.97;;;19.10;99.90;;;;;;4986893;28;20198;-52
2022/08/28 08:44:27;;;;;;;110.97;87.97;;;19.20;99.90;;;;;;4987478;28;20221;-52
2022/08/28 08:47:32;;;;;;;37.93;27.47;;;19.50;99.90;;;;;;5015206;28;20237;-51
2022/08/28 08:49:59;;;;;;;10.80;5.33;;;19.70;99.90;;;;;;4987778;28;20337;-52
2022/08/28 08:52:36;;;;;;;91.60;73.10;;;19.80;99.90;;;;;;4994267;28;20750;-51
2022/08/28 08:55:24;;;;;;;12.60;8.37;;;20.00;99.90;;;;;;4994681;28;20319;-50
2022/08/28 08:58:14;;;;;;;15.00;10.80;;;20.30;99.90;;;;;;4989096;28;20258;-51
2022/08/28 09:01:20;;;;;;;145.10;120.23;;;20.90;99.90;;;;;;4987416;28;20232;-51
2022/08/28 09:03:47;;;;;;;45.00;35.60;;;20.90;99.90;;;;;;5002652;28;20240;-51
2022/08/28 09:06:25;;;;;;;59.13;43.83;;;20.60;99.90;;;;;;4987248;28;20210;-49
2022/08/28 09:08:58;;;;;;;8.87;2.00;;;20.40;99.90;;;;;;4987533;28;20272;-52
2022/08/28 09:11:53;;;;;;;3.90;1.53;;;20.20;99.90;;;;;;4988215;28;20206;-51
2022/08/28 09:14:26;;;;;;;2.73;1.33;;;20.50;99.90;;;;;;4985223;28;20213;-51
2022/08/28 09:16:56;;;;;;;6.30;1.20;;;20.40;99.90;;;;;;4988453;28;20201;-51
2022/08/28 09:19:23;;;;;;;8.37;1.70;;;20.00;99.90;;;;;;4984222;28;20267;-51
2022/08/28 09:21:51;;;;;;;5.00;1.37;;;20.00;99.90;;;;;;4986611;28;20320;-51
2022/08/28 09:24:27;;;;;;;5.23;1.13;;;20.20;99.90;;;;;;4986982;28;20273;-51
2022/08/28 09:27:28;;;;;;;4.13;1.20;;;20.00;99.90;;;;;;4989105;28;20208;-51
2022/08/28 09:30:03;;;;;;;3.37;1.50;;;20.70;99.90;;;;;;4971098;28;21615;-51
2022/08/28 09:32:42;;;;;;;6.17;1.40;;;21.00;99.90;;;;;;4976194;28;21635;-51
2022/08/28 09:35:14;;;;;;;5.07;1.23;;;21.20;99.90;;;;;;4990185;28;20283;-51
2022/08/28 09:37:42;;;;;;;6.80;1.40;;;21.30;99.90;;;;;;4989046;28;20201;-51
2022/08/28 09:40:18;;;;;;;2.00;1.30;;;21.00;99.90;;;;;;4979528;28;20288;-51
2022/08/28 09:46:03;;;;;;;2.97;1.40;;;20.60;99.90;;;;;;4979653;28;20324;-52
2022/08/28 09:48:39;;;;;;;4.27;0.90;;;20.20;99.90;;;;;;4985026;28;20256;-52
2022/08/28 09:51:37;;;;;;;4.00;1.33;;;20.50;99.90;;;;;;4977751;28;20228;-53
2022/08/28 09:54:15;;;;;;;2.97;1.20;;;20.40;99.90;;;;;;4974125;28;20608;-51
2022/08/28 09:56:43;;;;;;;4.95;1.50;;;20.80;99.90;;;;;;4983955;28;20549;-55
2022/08/28 09:59:16;;;;;;;5.77;1.37;;;21.30;99.90;;;;;;4989356;28;20210;-55
2022/08/28 10:01:50;;;;;;;5.23;1.40;;;21.30;99.90;;;;;;4985899;28;20216;-55
2022/08/28 10:04:48;;;;;;;4.67;2.40;;;21.30;99.90;;;;;;4985237;28;20253;-54
2022/08/28 10:07:52;;;;;;;5.33;1.47;;;21.80;99.90;;;;;;4982900;28;20215;-54
2022/08/28 10:10:38;;;;;;;5.27;1.30;;;21.80;99.90;;;;;;4981578;28;20725;-55
2022/08/28 10:13:10;;;;;;;3.10;0.90;;;21.50;99.90;;;;;;4989069;28;20198;-54
2022/08/28 10:16:18;;;;;;;5.40;1.13;;;20.80;99.90;;;;;;4984559;28;20304;-54
2022/08/28 10:18:50;;;;;;;2.93;1.03;;;20.60;99.90;;;;;;4962183;28;20209;-54
2022/08/28 10:21:39;;;;;;;2.20;0.90;;;20.70;99.90;;;;;;4984241;28;20206;-54
2022/08/28 10:24:34;;;;;;;4.50;1.40;;;20.40;99.90;;;;;;4978801;28;20221;-54
2022/08/28 10:27:32;;;;;;;2.97;1.00;;;20.40;99.90;;;;;;4989981;28;20285;-55
2022/08/28 10:30:09;;;;;;;4.30;0.97;;;21.20;99.90;;;;;;4985433;28;20294;-55
2022/08/28 10:32:48;;;;;;;6.00;1.93;;;21.50;99.90;;;;;;4983615;28;20233;-55
2022/08/28 10:35:33;;;;;;;3.23;1.00;;;21.40;99.90;;;;;;4996878;28;20336;-54
2022/08/28 10:38:12;;;;;;;1.13;0.83;;;21.20;99.90;;;;;;5013857;28;20240;-54
2022/08/28 10:41:24;;;;;;;3.23;1.00;;;20.70;99.90;;;;;;5016148;28;20201;-54
2022/08/28 10:43:53;;;;;;;3.07;1.50;;;20.50;99.90;;;;;;4961803;28;20771;-54
2022/08/28 10:46:33;;;;;;;2.30;1.03;;;20.60;99.90;;;;;;4979149;28;20459;-52
2022/08/28 10:49:04;;;;;;;2.00;0.90;;;20.60;99.90;;;;;;4982645;28;20609;-50
2022/08/28 10:51:34;;;;;;;3.93;1.40;;;20.70;99.90;;;;;;4992949;28;20263;-51
2022/08/28 10:54:41;;;;;;;3.53;1.20;;;20.90;99.90;;;;;;4980606;28;20250;-52
2022/08/28 10:57:08;;;;;;;2.83;0.87;;;21.10;99.90;;;;;;4976511;28;20213;-52
2022/08/28 10:59:37;;;;;;;4.77;1.20;;;20.90;99.90;;;;;;4977967;28;20269;-52
2022/08/28 11:02:12;;;;;;;3.10;1.10;;;21.20;99.90;;;;;;4983550;28;20252;-51
2022/08/28 11:04:39;;;;;;;3.17;1.10;;;21.60;99.90;;;;;;4982938;28;20215;-52
2022/08/28 11:07:11;;;;;;;4.65;1.10;;;21.20;99.90;;;;;;4987237;28;20460;-55
2022/08/28 11:09:46;;;;;;;1.53;0.90;;;21.00;99.90;;;;;;4986281;28;20296;-55
2022/08/28 11:12:16;;;;;;;2.80;0.80;;;21.60;99.90;;;;;;4987543;28;20201;-54
2022/08/28 11:14:49;;;;;;;2.67;1.00;;;22.00;99.90;;;;;;4984706;28;20237;-54
2022/08/28 11:17:31;;;;;;;3.53;0.90;;;21.90;99.90;;;;;;4981416;28;20217;-53
2022/08/28 11:20:07;;;;;;;3.03;1.03;;;21.20;99.90;;;;;;4980846;28;21015;-53
2022/08/28 11:22:41;;;;;;;2.53;1.00;;;21.40;99.90;;;;;;4986591;28;20205;-54
2022/08/28 11:25:40;;;;;;;3.57;1.00;;;21.70;99.90;;;;;;4982364;28;20705;-53
2022/08/28 11:28:42;;;;;;;3.27;0.87;;;22.00;99.90;;;;;;4982900;28;20267;-53
2022/08/28 11:31:09;;;;;;;4.30;0.80;;;22.00;99.90;;;;;;4978129;28;20233;-53
2022/08/28 11:33:48;;;;;;;2.83;0.97;;;22.20;99.90;;;;;;4988268;28;20193;-52
2022/08/28 11:36:18;;;;;;;4.20;0.90;;;22.50;99.90;;;;;;4975052;28;20222;-51
2022/08/28 11:38:51;;;;;;;3.10;1.57;;;22.40;99.90;;;;;;4990530;28;20228;-51
2022/08/28 11:41:37;;;;;;;5.50;0.90;;;22.40;99.90;;;;;;4983664;28;20288;-52
2022/08/28 11:44:07;;;;;;;1.13;0.80;;;22.50;99.90;;;;;;4985194;28;20204;-51
2022/08/28 11:46:46;;;;;;;2.33;0.93;;;22.50;99.90;;;;;;4987112;28;20569;-52
2022/08/28 11:49:25;;;;;;;2.60;0.83;;;22.50;99.90;;;;;;4982671;28;20244;-52
2022/08/28 11:52:17;;;;;;;3.33;0.80;;;22.90;99.90;;;;;;4975774;28;20256;-52
2022/08/28 11:54:54;;;;;;;2.83;0.80;;;22.90;99.90;;;;;;4992265;28;20235;-51
2022/08/28 11:57:48;;;;;;;2.60;1.00;;;22.20;99.90;;;;;;4996185;28;20739;-52
2022/08/28 12:00:41;;;;;;;3.37;1.00;;;22.30;99.90;;;;;;4987303;28;20267;-51
2022/08/28 12:03:12;;;;;;;2.33;0.90;;;22.30;99.90;;;;;;4980258;28;21327;-53
2022/08/28 12:05:49;;;;;;;1.10;0.80;;;23.50;99.90;;;;;;4990721;28;20229;-52
2022/08/28 12:08:50;;;;;;;3.03;1.37;;;22.70;99.90;;;;;;4993199;28;20197;-52
2022/08/28 12:11:38;;;;;;;2.10;1.00;;;22.10;99.90;;;;;;4995833;28;20264;-51
2022/08/28 12:14:24;;;;;;;3.07;1.13;;;22.10;99.90;;;;;;4997751;28;20195;-51
2022/08/28 12:17:15;;;;;;;2.80;0.93;;;22.90;99.90;;;;;;4998844;28;20191;-51
2022/08/28 12:20:08;;;;;;;1.90;0.90;;;22.30;99.90;;;;;;4961885;28;20234;-51
2022/08/28 12:22:51;;;;;;;4.03;0.80;;;22.20;99.90;;;;;;4997737;28;20202;-52
2022/08/28 12:25:34;;;;;;;3.07;0.90;;;22.90;99.90;;;;;;4991507;28;20258;-52
2022/08/28 12:28:26;;;;;;;1.20;0.73;;;23.10;99.90;;;;;;4995589;28;20203;-52
2022/08/28 12:34:43;;;;;;;2.27;0.90;;;23.20;99.90;;;;;;5001107;28;20256;-52
2022/08/28 12:37:45;;;;;;;2.27;0.80;;;23.30;99.90;;;;;;5002598;28;20209;-50
2022/08/28 12:40:49;;;;;;;2.97;1.00;;;23.90;99.90;;;;;;4971170;28;20213;-51
2022/08/28 12:43:29;;;;;;;1.67;0.77;;;24.00;99.90;;;;;;4973910;28;20212;-52
2022/08/28 12:45:59;;;;;;;3.07;0.90;;;23.00;99.90;;;;;;4991537;28;20319;-50
2022/08/28 12:48:33;;;;;;;3.13;0.70;;;22.60;99.90;;;;;;4997357;28;20339;-53
2022/08/28 12:51:06;;;;;;;4.00;1.10;;;22.40;99.90;;;;;;4997975;28;20654;-52
2022/08/28 12:54:07;;;;;;;2.33;0.80;;;22.60;99.90;;;;;;5001398;28;20204;-51
2022/08/28 12:56:37;;;;;;;0.77;0.40;;;22.80;99.90;;;;;;4947469;28;20293;-54
2022/08/28 12:59:24;;;;;;;4.25;1.17;;;23.40;99.90;;;;;;4994025;28;20493;-54
2022/08/28 13:01:53;;;;;;;0.87;0.70;;;24.40;99.90;;;;;;4997214;28;20632;-54
2022/08/28 13:04:32;;;;;;;2.23;0.80;;;25.30;99.90;;;;;;5000174;28;20246;-54
2022/08/28 13:07:09;;;;;;;2.63;0.90;;;25.40;99.90;;;;;;4995320;28;20201;-54
2022/08/28 13:09:38;;;;;;;3.40;1.00;;;24.50;99.90;;;;;;4976773;28;22350;-54
2022/08/28 13:12:05;;;;;;;1.53;0.80;;;23.50;99.90;;;;;;4983574;28;20261;-54
2022/08/28 13:14:51;;;;;;;2.73;1.00;;;23.20;99.90;;;;;;4978956;28;20262;-54
2022/08/28 13:17:45;;;;;;;1.63;0.80;;;24.10;99.90;;;;;;4987939;28;20305;-54
2022/08/28 13:20:33;;;;;;;3.40;1.00;;;25.90;99.90;;;;;;4991309;28;20203;-54
2022/08/28 13:23:00;;;;;;;2.60;0.97;;;25.70;99.90;;;;;;5017761;28;20201;-55
2022/08/28 13:25:30;;;;;;;2.60;1.07;;;24.30;99.90;;;;;;4981948;28;20222;-55
2022/08/28 13:28:04;;;;;;;2.30;0.80;;;23.60;99.90;;;;;;4983353;28;20202;-55